Observation data for Post on 07/11/2018      Previous  Date       Current Mesonet Observations  Soil Data  Daily Summary Page  Observations in Plain Language
KPT1 110505Z 18004KT 25/16 A3011 RMK A01 T02540158  RH  056%=      5-min Rain = 0
KPT1 110510Z 17004KT 25/16 A3011 RMK A01 T02540157  RH  056%=      5-min Rain = 0
KPT1 110515Z 17004KT 25/16 A3011 RMK A01 T02520158  RH  057%=      5-min Rain = 0
KPT1 110520Z 17004KT 25/16 A3011 RMK A01 T02510157  RH  057%=      5-min Rain = 0
KPT1 110525Z 17004KT 25/16 A3011 RMK A01 T02510158  RH  058%=      5-min Rain = 0
KPT1 110530Z 18003KT 25/16 A3011 RMK A01 T02490158  RH  058%=      5-min Rain = 0
KPT1 110535Z 17003KT 25/16 A3011 RMK A01 T02480158  RH  059%=      5-min Rain = 0
KPT1 110540Z 17002KT 25/16 A3011 RMK A01 T02460159  RH  060%=      5-min Rain = 0
KPT1 110545Z 17002KT 25/16 A3011 RMK A01 T02450159  RH  060%=      5-min Rain = 0
KPT1 110550Z 19002KT 25/16 A3011 RMK A01 T02460159  RH  060%=      5-min Rain = 0
KPT1 110555Z 19003KT 25/16 A3011 RMK A01 T02460159  RH  060%=      5-min Rain = 0
KPT1 110600Z 19003KT 25/16 A3011 RMK A01 T02460160  RH  060%=      5-min Rain = 0
KPT1 110605Z 19003KT 25/16 A3011 RMK A01 T02450161  RH  061%=      5-min Rain = 0
KPT1 110610Z 18003KT 24/16 A3011 RMK A01 T02430162  RH  062%=      5-min Rain = 0
KPT1 110615Z 17003KT 24/16 A3011 RMK A01 T02420163  RH  063%=      5-min Rain = 0
KPT1 110620Z 17003KT 24/16 A3011 RMK A01 T02410163  RH  063%=      5-min Rain = 0
KPT1 110625Z 18003KT 24/16 A3011 RMK A01 T02400163  RH  063%=      5-min Rain = 0
KPT1 110630Z 18002KT 24/16 A3012 RMK A01 T02410163  RH  063%=      5-min Rain = 0
KPT1 110635Z 19002KT 24/16 A3012 RMK A01 T02400163  RH  063%=      5-min Rain = 0
KPT1 110640Z 20002KT 24/16 A3012 RMK A01 T02410163  RH  063%=      5-min Rain = 0
KPT1 110645Z 20003KT 24/16 A3011 RMK A01 T02420164  RH  063%=      5-min Rain = 0
KPT1 110650Z 18003KT 24/17 A3011 RMK A01 T02400165  RH  064%=      5-min Rain = 0
KPT1 110655Z 18003KT 24/17 A3011 RMK A01 T02390166  RH  065%=      5-min Rain = 0
KPT1 110700Z 17003KT 24/17 A3011 RMK A01 T02360168  RH  067%=      5-min Rain = 0
KPT1 110705Z 16003KT 23/17 A3011 RMK A01 T02340169  RH  068%=      5-min Rain = 0
KPT1 110710Z 18002KT 23/17 A3011 RMK A01 T02340170  RH  069%=      5-min Rain = 0
KPT1 110715Z 18002KT 24/17 A3011 RMK A01 T02350170  RH  068%=      5-min Rain = 0
KPT1 110720Z 17002KT 24/17 A3011 RMK A01 T02350169  RH  068%=      5-min Rain = 0
KPT1 110725Z 19002KT 23/17 A3011 RMK A01 T02340169  RH  068%=      5-min Rain = 0
KPT1 110730Z 20002KT 23/17 A3011 RMK A01 T02330169  RH  069%=      5-min Rain = 0
KPT1 110735Z 18002KT 23/17 A3011 RMK A01 T02340169  RH  069%=      5-min Rain = 0
KPT1 110740Z 21002KT 23/17 A3011 RMK A01 T02330170  RH  069%=      5-min Rain = 0
KPT1 110745Z 22002KT 23/17 A3011 RMK A01 T02320171  RH  070%=      5-min Rain = 0
KPT1 110750Z 24003KT 23/17 A3011 RMK A01 T02310171  RH  070%=      5-min Rain = 0
KPT1 110755Z 24003KT 23/17 A3011 RMK A01 T02300171  RH  071%=      5-min Rain = 0
KPT1 110800Z 24003KT 23/17 A3011 RMK A01 T02280171  RH  072%=      5-min Rain = 0
KPT1 110805Z 24003KT 23/17 A3011 RMK A01 T02270172  RH  073%=      5-min Rain = 0
KPT1 110810Z 23003KT 23/17 A3011 RMK A01 T02270171  RH  073%=      5-min Rain = 0
KPT1 110815Z 23003KT 23/17 A3011 RMK A01 T02260171  RH  073%=      5-min Rain = 0
KPT1 110820Z 24003KT 23/17 A3011 RMK A01 T02250172  RH  074%=      5-min Rain = 0
KPT1 110825Z 24003KT 23/17 A3011 RMK A01 T02250172  RH  074%=      5-min Rain = 0
KPT1 110830Z 24004KT 22/17 A3011 RMK A01 T02240173  RH  075%=      5-min Rain = 0
KPT1 110835Z 23004KT 22/17 A3011 RMK A01 T02230173  RH  075%=      5-min Rain = 0
KPT1 110840Z 24003KT 22/17 A3011 RMK A01 T02230173  RH  075%=      5-min Rain = 0
KPT1 110845Z 23003KT 22/17 A3011 RMK A01 T02230173  RH  075%=      5-min Rain = 0
KPT1 110850Z 23003KT 22/17 A3011 RMK A01 T02230173  RH  075%=      5-min Rain = 0
KPT1 110855Z 23003KT 22/17 A3011 RMK A01 T02240173  RH  075%=      5-min Rain = 0
KPT1 110900Z 24003KT 22/17 A3011 RMK A01 T02230173  RH  075%=      5-min Rain = 0
KPT1 110905Z 25003KT 22/17 A3011 RMK A01 T02230174  RH  075%=      5-min Rain = 0
KPT1 110910Z 24002KT 22/17 A3011 RMK A01 T02220174  RH  076%=      5-min Rain = 0
KPT1 110915Z 24003KT 22/17 A3011 RMK A01 T02220174  RH  076%=      5-min Rain = 0
KPT1 110920Z 24002KT 22/18 A3011 RMK A01 T02220175  RH  077%=      5-min Rain = 0
KPT1 110925Z 24002KT 22/18 A3011 RMK A01 T02210175  RH  077%=      5-min Rain = 0
KPT1 110930Z 23001KT 22/17 A3011 RMK A01 T02170174  RH  079%=      5-min Rain = 0
KPT1 110935Z 09002KT 21/17 A3011 RMK A01 T02090174  RH  082%=      5-min Rain = 0
KPT1 110940Z 08002KT 20/17 A3011 RMK A01 T02040174  RH  085%=      5-min Rain = 0
KPT1 110945Z 07002KT 21/18 A3011 RMK A01 T02050177  RH  086%=      5-min Rain = 0
KPT1 110950Z 05001KT 21/18 A3011 RMK A01 T02090177  RH  084%=      5-min Rain = 0
KPT1 110955Z 05001KT 21/18 A3011 RMK A01 T02120176  RH  082%=      5-min Rain = 0
KPT1 111000Z 05000KT 21/18 A3011 RMK A01 T02130175  RH  081%=      5-min Rain = 0
KPT1 111005Z 06001KT 21/18 A3011 RMK A01 T02130175  RH  081%=      5-min Rain = 0
KPT1 111010Z 05001KT 22/17 A3011 RMK A01 T02150174  RH  079%=      5-min Rain = 0
KPT1 111015Z 04001KT 21/17 A3011 RMK A01 T02140173  RH  079%=      5-min Rain = 0
KPT1 111020Z 02001KT 21/17 A3011 RMK A01 T02130173  RH  080%=      5-min Rain = 0
KPT1 111025Z 01001KT 21/17 A3011 RMK A01 T02100174  RH  082%=      5-min Rain = 0
KPT1 111030Z 00000KT 21/17 A3011 RMK A01 T02100172  RH  081%=      5-min Rain = 0
KPT1 111035Z 00000KT 21/18 A3011 RMK A01 T02100175  RH  082%=      5-min Rain = 0
KPT1 111040Z 00000KT 21/18 A3011 RMK A01 T02120176  RH  082%=      5-min Rain = 0
KPT1 111045Z 00000KT 21/18 A3011 RMK A01 T02130178  RH  083%=      5-min Rain = 0
KPT1 111050Z 19001KT 21/18 A3011 RMK A01 T02120179  RH  083%=      5-min Rain = 0
KPT1 111055Z 20001KT 21/18 A3011 RMK A01 T02130179  RH  083%=      5-min Rain = 0
KPT1 111100Z 18001KT 21/18 A3011 RMK A01 T02130177  RH  082%=      5-min Rain = 0
KPT1 111105Z 16002KT 21/17 A3011 RMK A01 T02140174  RH  080%=      5-min Rain = 0
KPT1 111110Z 15003KT 21/17 A3011 RMK A01 T02140172  RH  079%=      5-min Rain = 0
KPT1 111115Z 16003KT 21/17 A3011 RMK A01 T02140171  RH  079%=      5-min Rain = 0
KPT1 111120Z 17003KT 21/17 A3011 RMK A01 T02130171  RH  079%=      5-min Rain = 0
KPT1 111125Z 17002KT 21/17 A3011 RMK A01 T02120172  RH  079%=      5-min Rain = 0
KPT1 111130Z 18002KT 21/17 A3011 RMK A01 T02130171  RH  079%=      5-min Rain = 0
KPT1 111135Z 18002KT 21/17 A3011 RMK A01 T02130171  RH  079%=      5-min Rain = 0
KPT1 111140Z 19002KT 21/17 A3011 RMK A01 T02140171  RH  078%=      5-min Rain = 0
KPT1 111145Z 21003KT 22/17 A3012 RMK A01 T02150169  RH  077%=      5-min Rain = 0
KPT1 111150Z 20003KT 22/17 A3012 RMK A01 T02150168  RH  076%=      5-min Rain = 0
KPT1 111155Z 20004KT 22/17 A3012 RMK A01 T02160166  RH  075%=      5-min Rain = 0
KPT1 111200Z 21004KT 22/16 A3012 RMK A01 T02180164  RH  073%=      5-min Rain = 0
KPT1 111205Z 21005KT 22/16 A3012 RMK A01 T02200162  RH  071%=      5-min Rain = 0
KPT1 111210Z 21004KT 22/16 A3012 RMK A01 T02220161  RH  070%=      5-min Rain = 0
KPT1 111215Z 21004KT 22/16 A3012 RMK A01 T02220160  RH  070%=      5-min Rain = 0
KPT1 111220Z 21005KT 22/16 A3012 RMK A01 T02230159  RH  069%=      5-min Rain = 0
KPT1 111225Z 20005KT 23/16 A3012 RMK A01 T02250159  RH  068%=      5-min Rain = 0
KPT1 111230Z 20006KT 23/16 A3012 RMK A01 T02250159  RH  068%=      5-min Rain = 0
KPT1 111235Z 20005KT 22/16 A3012 RMK A01 T02240160  RH  069%=      5-min Rain = 0
KPT1 111240Z 19005KT 23/16 A3012 RMK A01 T02250161  RH  068%=      5-min Rain = 0
KPT1 111245Z 19004KT 23/16 A3012 RMK A01 T02260162  RH  069%=      5-min Rain = 0
KPT1 111250Z 18005KT 23/16 A3012 RMK A01 T02280163  RH  068%=      5-min Rain = 0
KPT1 111255Z 18004KT 23/17 A3012 RMK A01 T02320166  RH  068%=      5-min Rain = 0
KPT1 111300Z 18006KT 23/17 A3012 RMK A01 T02330166  RH  068%=      5-min Rain = 0
KPT1 111305Z 18006KT 24/17 A3013 RMK A01 T02350166  RH  067%=      5-min Rain = 0
KPT1 111310Z 18006KT 24/17 A3013 RMK A01 T02380167  RH  066%=      5-min Rain = 0
KPT1 111315Z 19006KT 24/17 A3013 RMK A01 T02420168  RH  065%=      5-min Rain = 0
KPT1 111320Z 19007KT 25/17 A3013 RMK A01 T02450168  RH  064%=      5-min Rain = 0
KPT1 111325Z 19007KT 25/17 A3013 RMK A01 T02480168  RH  063%=      5-min Rain = 0
KPT1 111330Z 19007KT 25/17 A3013 RMK A01 T02500169  RH  062%=      5-min Rain = 0
KPT1 111335Z 18008KT 25/17 A3013 RMK A01 T02530169  RH  061%=      5-min Rain = 0
KPT1 111340Z 18009KT 25/17 A3013 RMK A01 T02530169  RH  061%=      5-min Rain = 0
KPT1 111345Z 18010G15KT 25/17 A3013 RMK A01 T02540169  RH  061%=      5-min Rain = 0
KPT1 111350Z 19010KT 26/17 A3013 RMK A01 T02550170  RH  061%=      5-min Rain = 0
KPT1 111355Z 18012KT 26/17 A3013 RMK A01 T02560170  RH  060%=      5-min Rain = 0
KPT1 111400Z 18011KT 26/17 A3014 RMK A01 T02570170  RH  060%=      5-min Rain = 0
KPT1 111405Z 18011KT 26/17 A3014 RMK A01 T02580171  RH  060%=      5-min Rain = 0
KPT1 111410Z 19010KT 26/17 A3014 RMK A01 T02590171  RH  060%=      5-min Rain = 0
KPT1 111415Z 19010KT 26/17 A3014 RMK A01 T02610172  RH  060%=      5-min Rain = 0
KPT1 111420Z 19010G15KT 26/17 A3014 RMK A01 T02630173  RH  059%=      5-min Rain = 0
KPT1 111425Z 19010G15KT 26/18 A3014 RMK A01 T02640175  RH  059%=      5-min Rain = 0
KPT1 111430Z 19009KT 27/18 A3014 RMK A01 T02660175  RH  059%=      5-min Rain = 0
KPT1 111435Z 19009G14KT 27/18 A3014 RMK A01 T02690176  RH  058%=      5-min Rain = 0
KPT1 111440Z 19011KT 27/18 A3014 RMK A01 T02710175  RH  057%=      5-min Rain = 0
KPT1 111445Z 19009G14KT 27/18 A3014 RMK A01 T02710175  RH  057%=      5-min Rain = 0
KPT1 111450Z 20009G14KT 28/18 A3013 RMK A01 T02750176  RH  056%=      5-min Rain = 0
KPT1 111455Z 19009KT 28/18 A3013 RMK A01 T02770176  RH  055%=      5-min Rain = 0
KPT1 111500Z 20009KT 28/18 A3013 RMK A01 T02780176  RH  055%=      5-min Rain = 0
KPT1 111505Z 19008G13KT 28/18 A3013 RMK A01 T02790177  RH  055%=      5-min Rain = 0
KPT1 111510Z 19010KT 28/18 A3013 RMK A01 T02810175  RH  054%=      5-min Rain = 0
KPT1 111515Z 19008KT 28/18 A3013 RMK A01 T02830177  RH  054%=      5-min Rain = 0
KPT1 111520Z 20010G15KT 29/17 A3013 RMK A01 T02850173  RH  052%=      5-min Rain = 0
KPT1 111525Z 20009G14KT 29/17 A3013 RMK A01 T02850173  RH  052%=      5-min Rain = 0
KPT1 111530Z 20010KT 29/17 A3013 RMK A01 T02870172  RH  051%=      5-min Rain = 0
KPT1 111535Z 18007G12KT 29/18 A3013 RMK A01 T02930175  RH  050%=      5-min Rain = 0
KPT1 111540Z 18009KT 30/18 A3013 RMK A01 T02960175  RH  049%=      5-min Rain = 0
KPT1 111545Z 19008G13KT 29/17 A3013 RMK A01 T02920170  RH  049%=      5-min Rain = 0
KPT1 111550Z 21008KT 29/17 A3013 RMK A01 T02920173  RH  050%=      5-min Rain = 0
KPT1 111555Z 19009KT 29/17 A3013 RMK A01 T02910169  RH  049%=      5-min Rain = 0
KPT1 111600Z 20008KT 29/17 A3013 RMK A01 T02890169  RH  049%=      5-min Rain = 0
KPT1 111605Z 19007G12KT 30/17 A3013 RMK A01 T02960170  RH  048%=      5-min Rain = 0
KPT1 111610Z 19007G12KT 30/17 A3013 RMK A01 T03000172  RH  047%=      5-min Rain = 0
KPT1 111615Z 18009KT 30/17 A3013 RMK A01 T03000169  RH  046%=      5-min Rain = 0
KPT1 111620Z 18010KT 30/17 A3013 RMK A01 T03020167  RH  045%=      5-min Rain = 0
KPT1 111625Z 19009KT 30/17 A3013 RMK A01 T03020166  RH  045%=      5-min Rain = 0
KPT1 111630Z 19008KT 31/17 A3013 RMK A01 T03060168  RH  045%=      5-min Rain = 0
KPT1 111635Z 16010G15KT 31/17 A3013 RMK A01 T03090166  RH  043%=      5-min Rain = 0
KPT1 111640Z 18008G14KT 31/16 A3012 RMK A01 T03080164  RH  043%=      5-min Rain = 0
KPT1 111645Z 18008KT 31/16 A3012 RMK A01 T03110164  RH  042%=      5-min Rain = 0
KPT1 111650Z 19007KT 31/17 A3012 RMK A01 T03140165  RH  042%=      5-min Rain = 0
KPT1 111655Z 15008KT 31/17 A3012 RMK A01 T03130165  RH  042%=      5-min Rain = 0
KPT1 111700Z 18007G15KT 32/17 A3012 RMK A01 T03180167  RH  041%=      5-min Rain = 0
KPT1 111705Z 15007G14KT 32/17 A3012 RMK A01 T03180165  RH  041%=      5-min Rain = 0
KPT1 111710Z 18005G10KT 32/17 A3012 RMK A01 T03220166  RH  040%=      5-min Rain = 0
KPT1 111715Z 18010G16KT 32/16 A3012 RMK A01 T03190158  RH  039%=      5-min Rain = 0
KPT1 111720Z 17010G16KT 32/16 A3012 RMK A01 T03170157  RH  039%=      5-min Rain = 0
KPT1 111725Z 18009KT 32/16 A3012 RMK A01 T03220156  RH  038%=      5-min Rain = 0
KPT1 111730Z 19011G17KT 32/15 A3012 RMK A01 T03210153  RH  037%=      5-min Rain = 0
KPT1 111735Z 17012G17KT 33/15 A3012 RMK A01 T03250147  RH  035%=      5-min Rain = 0
KPT1 111740Z 17010KT 32/15 A3012 RMK A01 T03240148  RH  035%=      5-min Rain = 0
KPT1 111745Z 16013G19KT 33/15 A3011 RMK A01 T03250146  RH  035%=      5-min Rain = 0
KPT1 111750Z 14012G17KT 32/14 A3011 RMK A01 T03210142  RH  035%=      5-min Rain = 0
KPT1 111755Z 18010G15KT 32/14 A3011 RMK A01 T03240141  RH  034%=      5-min Rain = 0
KPT1 111800Z 17012G21KT 33/14 A3011 RMK A01 T03250141  RH  034%=      5-min Rain = 0
KPT1 111805Z 16012G19KT 33/14 A3011 RMK A01 T03250142  RH  034%=      5-min Rain = 0
KPT1 111810Z 16011G19KT 33/15 A301 RMK A01 T03300145  RH  034%=      5-min Rain = 0
KPT1 111815Z 16011G17KT 33/14 A301 RMK A01 T03300135  RH  031%=      5-min Rain = 0
KPT1 111820Z 18014G20KT 33/13 A301 RMK A01 T03290130  RH  031%=      5-min Rain = 0
KPT1 111825Z 19011G16KT 33/14 A301 RMK A01 T03280137  RH  032%=      5-min Rain = 0
KPT1 111830Z 16009G17KT 32/14 A301 RMK A01 T03230138  RH  033%=      5-min Rain = 0
KPT1 111835Z 16013KT 33/13 A3009 RMK A01 T03270132  RH  031%=      5-min Rain = 0
KPT1 111840Z 17010G16KT 33/13 A3009 RMK A01 T03310134  RH  031%=      5-min Rain = 0
KPT1 111845Z 19013G22KT 33/13 A3009 RMK A01 T03310125  RH  029%=      5-min Rain = 0
KPT1 111850Z 20014G21KT 33/13 A3009 RMK A01 T03330129  RH  030%=      5-min Rain = 0
KPT1 111855Z 18011G18KT 33/13 A3009 RMK A01 T03310130  RH  030%=      5-min Rain = 0
KPT1 111900Z 19011G18KT 33/13 A3008 RMK A01 T03310130  RH  030%=      5-min Rain = 0
KPT1 111905Z 19010KT 34/12 A3008 RMK A01 T03370124  RH  028%=      5-min Rain = 0
KPT1 111910Z 19012G17KT 33/13 A3008 RMK A01 T03330129  RH  030%=      5-min Rain = 0
KPT1 111915Z 17014KT 33/12 A3008 RMK A01 T03330121  RH  028%=      5-min Rain = 0
KPT1 111920Z 20014G21KT 34/11 A3007 RMK A01 T03360112  RH  026%=      5-min Rain = 0
KPT1 111925Z 20011G16KT 34/13 A3007 RMK A01 T03400125  RH  028%=      5-min Rain = 0
KPT1 111930Z 18010G15KT 34/13 A3007 RMK A01 T03390125  RH  028%=      5-min Rain = 0
KPT1 111935Z 18014G20KT 34/13 A3007 RMK A01 T03360127  RH  029%=      5-min Rain = 0
KPT1 111940Z 16013G18KT 34/13 A3007 RMK A01 T03360131  RH  030%=      5-min Rain = 0
KPT1 111945Z 18011G18KT 33/13 A3006 RMK A01 T03330129  RH  030%=      5-min Rain = 0
KPT1 111950Z 18009G16KT 34/13 A3006 RMK A01 T03390129  RH  029%=      5-min Rain = 0
KPT1 111955Z 17011G19KT 33/13 A3006 RMK A01 T03340127  RH  029%=      5-min Rain = 0
KPT1 112000Z 16012G18KT 34/13 A3005 RMK A01 T03350125  RH  029%=      5-min Rain = 0
KPT1 112005Z 18013G23KT 34/13 A3005 RMK A01 T03370126  RH  028%=      5-min Rain = 0
KPT1 112010Z 18014G19KT 34/12 A3005 RMK A01 T03410119  RH  026%=      5-min Rain = 0
KPT1 112015Z 19013G21KT 34/12 A3004 RMK A01 T03400116  RH  026%=      5-min Rain = 0
KPT1 112020Z 19012G17KT 34/11 A3004 RMK A01 T03430114  RH  025%=      5-min Rain = 0
KPT1 112025Z 19011G16KT 34/11 A3004 RMK A01 T03440112  RH  025%=      5-min Rain = 0
KPT1 112030Z 16012G20KT 35/11 A3004 RMK A01 T03450113  RH  025%=      5-min Rain = 0
KPT1 112035Z 18013G19KT 35/11 A3004 RMK A01 T03480113  RH  024%=      5-min Rain = 0
KPT1 112040Z 20010G18KT 35/11 A3004 RMK A01 T03450112  RH  025%=      5-min Rain = 0
KPT1 112045Z 19008G14KT 35/11 A3004 RMK A01 T03490114  RH  024%=      5-min Rain = 0
KPT1 112050Z 20012G18KT 35/11 A3003 RMK A01 T03460108  RH  024%=      5-min Rain = 0
KPT1 112055Z 18011G16KT 35/11 A3003 RMK A01 T03490111  RH  024%=      5-min Rain = 0
KPT1 112100Z 17012G18KT 35/11 A3003 RMK A01 T03470107  RH  024%=      5-min Rain = 0
KPT1 112105Z 19012G19KT 35/11 A3003 RMK A01 T03460112  RH  025%=      5-min Rain = 0
KPT1 112110Z 18013G18KT 35/11 A3003 RMK A01 T03450114  RH  025%=      5-min Rain = 0
KPT1 112115Z 18008KT 35/12 A3002 RMK A01 T03460118  RH  026%=      5-min Rain = 0
KPT1 112120Z 19012G18KT 35/12 A3002 RMK A01 T03500122  RH  026%=      5-min Rain = 0
KPT1 112125Z 20010G15KT 35/12 A3002 RMK A01 T03480123  RH  026%=      5-min Rain = 0
KPT1 112130Z 18010KT 35/13 A3001 RMK A01 T03480126  RH  027%=      5-min Rain = 0
KPT1 112135Z 19012G17KT 35/12 A3001 RMK A01 T03490124  RH  026%=      5-min Rain = 0
KPT1 112140Z 18013G20KT 35/12 A3001 RMK A01 T03490124  RH  026%=      5-min Rain = 0
KPT1 112145Z 19012G17KT 35/13 A3001 RMK A01 T03470125  RH  027%=      5-min Rain = 0
KPT1 112150Z 17010G15KT 35/12 A3001 RMK A01 T03490124  RH  026%=      5-min Rain = 0
KPT1 112155Z 18011G18KT 35/12 A30 RMK A01 T03500123  RH  026%=      5-min Rain = 0
KPT1 112200Z 18011G17KT 35/12 A30 RMK A01 T03500122  RH  026%=      5-min Rain = 0
KPT1 112205Z 16010G15KT 35/12 A30 RMK A01 T03500119  RH  025%=      5-min Rain = 0
KPT1 112210Z 18009G15KT 35/12 A30 RMK A01 T03500122  RH  026%=      5-min Rain = 0
KPT1 112215Z 16010G15KT 34/12 A30 RMK A01 T03410119  RH  026%=      5-min Rain = 0
KPT1 112220Z 18008G14KT 34/12 A30 RMK A01 T03410120  RH  027%=      5-min Rain = 0
KPT1 112225Z 17010G15KT 35/12 A2999 RMK A01 T03470124  RH  026%=      5-min Rain = 0
KPT1 112230Z 17012KT 35/12 A2999 RMK A01 T03470123  RH  026%=      5-min Rain = 0
KPT1 112235Z 17010KT 34/12 A2999 RMK A01 T03380121  RH  027%=      5-min Rain = 0
KPT1 112240Z 16009KT 35/13 A2999 RMK A01 T03470126  RH  027%=      5-min Rain = 0
KPT1 112245Z 13011KT 35/13 A2999 RMK A01 T03520126  RH  026%=      5-min Rain = 0
KPT1 112250Z 13011KT 35/13 A2999 RMK A01 T03450125  RH  027%=      5-min Rain = 0
KPT1 112255Z 16012G17KT 34/12 A2999 RMK A01 T03370124  RH  028%=      5-min Rain = 0
KPT1 112300Z 15011G17KT 34/13 A2999 RMK A01 T03440127  RH  027%=      5-min Rain = 0
KPT1 112305Z 14011G22KT 34/13 A2999 RMK A01 T03430126  RH  028%=      5-min Rain = 0
KPT1 112310Z 16012G24KT 35/13 A2999 RMK A01 T03470128  RH  027%=      5-min Rain = 0
KPT1 112315Z 15011G16KT 35/13 A2999 RMK A01 T03480127  RH  027%=      5-min Rain = 0
KPT1 112320Z 15011G18KT 35/13 A2999 RMK A01 T03490126  RH  027%=      5-min Rain = 0
KPT1 112325Z 16009KT 34/13 A2999 RMK A01 T03440128  RH  028%=      5-min Rain = 0
KPT1 112330Z 16014KT 34/13 A2999 RMK A01 T03390125  RH  028%=      5-min Rain = 0
KPT1 112335Z 17011G17KT 35/13 A2998 RMK A01 T03450127  RH  027%=      5-min Rain = 0
KPT1 112340Z 17010G16KT 35/13 A2998 RMK A01 T03460125  RH  027%=      5-min Rain = 0
KPT1 112345Z 17012G17KT 34/12 A2998 RMK A01 T03440124  RH  027%=      5-min Rain = 0
KPT1 112350Z 16010G16KT 34/13 A2998 RMK A01 T03440126  RH  027%=      5-min Rain = 0
KPT1 112355Z 16012KT 34/12 A2998 RMK A01 T03420123  RH  027%=      5-min Rain = 0
KPT1 120000Z 18009G15KT 34/13 A2998 RMK A01 T03430126  RH  028%=      5-min Rain = 0
KPT1 120005Z 17010KT 34/12 A2998 RMK A01 T03380124  RH  028%=      5-min Rain = 0
KPT1 120010Z 17010KT 34/13 A2998 RMK A01 T03350126  RH  029%=      5-min Rain = 0
KPT1 120015Z 17009G15KT 33/12 A2999 RMK A01 T03330124  RH  029%=      5-min Rain = 0
KPT1 120020Z 16009G14KT 34/13 A2998 RMK A01 T03350126  RH  029%=      5-min Rain = 0
KPT1 120025Z 15011KT 34/13 A2998 RMK A01 T03370126  RH  028%=      5-min Rain = 0
KPT1 120030Z 16011G17KT 34/13 A2998 RMK A01 T03370125  RH  028%=      5-min Rain = 0
KPT1 120035Z 16010G15KT 33/13 A2998 RMK A01 T03330125  RH  029%=      5-min Rain = 0
KPT1 120040Z 17010G15KT 33/13 A2999 RMK A01 T03300125  RH  029%=      5-min Rain = 0
KPT1 120045Z 16009KT 33/12 A2999 RMK A01 T03280123  RH  029%=      5-min Rain = 0
KPT1 120050Z 16010KT 33/12 A2999 RMK A01 T03280124  RH  029%=      5-min Rain = 0
KPT1 120055Z 16009G14KT 33/12 A2999 RMK A01 T03300124  RH  029%=      5-min Rain = 0
KPT1 120100Z 17009KT 33/13 A30 RMK A01 T03320126  RH  029%=      5-min Rain = 0
KPT1 120105Z 16009KT 33/13 A30 RMK A01 T03320125  RH  029%=      5-min Rain = 0
KPT1 120110Z 17009KT 33/13 A30 RMK A01 T03300125  RH  029%=      5-min Rain = 0
KPT1 120115Z 16008KT 33/13 A30 RMK A01 T03270125  RH  030%=      5-min Rain = 0
KPT1 120120Z 16009KT 33/12 A30 RMK A01 T03250124  RH  030%=      5-min Rain = 0
KPT1 120125Z 16011KT 32/12 A30 RMK A01 T03240124  RH  030%=      5-min Rain = 0
KPT1 120130Z 16008KT 32/13 A30 RMK A01 T03220125  RH  031%=      5-min Rain = 0
KPT1 120135Z 16009KT 32/13 A30 RMK A01 T03200125  RH  031%=      5-min Rain = 0
KPT1 120140Z 16009KT 32/12 A30 RMK A01 T03200124  RH  031%=      5-min Rain = 0
KPT1 120145Z 16007KT 32/13 A30 RMK A01 T03170125  RH  032%=      5-min Rain = 0
KPT1 120150Z 15006KT 31/13 A30 RMK A01 T03140126  RH  032%=      5-min Rain = 0
KPT1 120155Z 15007KT 31/13 A30 RMK A01 T03120125  RH  033%=      5-min Rain = 0
KPT1 120200Z 15006KT 31/13 A3001 RMK A01 T03100125  RH  033%=      5-min Rain = 0
KPT1 120205Z 15006KT 31/13 A3001 RMK A01 T03090125  RH  033%=      5-min Rain = 0
KPT1 120210Z 15005KT 31/13 A3001 RMK A01 T03060126  RH  034%=      5-min Rain = 0
KPT1 120215Z 15006KT 30/13 A3001 RMK A01 T03040127  RH  034%=      5-min Rain = 0
KPT1 120220Z 15005KT 30/13 A3001 RMK A01 T03020127  RH  035%=      5-min Rain = 0
KPT1 120225Z 15005KT 30/13 A3001 RMK A01 T03010128  RH  035%=      5-min Rain = 0
KPT1 120230Z 16005KT 30/13 A3002 RMK A01 T02990128  RH  036%=      5-min Rain = 0
KPT1 120235Z 16005KT 30/13 A3002 RMK A01 T02990128  RH  036%=      5-min Rain = 0
KPT1 120240Z 16005KT 30/13 A3002 RMK A01 T02980129  RH  036%=      5-min Rain = 0
KPT1 120245Z 17004KT 30/13 A3003 RMK A01 T02980130  RH  036%=      5-min Rain = 0
KPT1 120250Z 16004KT 30/13 A3003 RMK A01 T02980131  RH  037%=      5-min Rain = 0
KPT1 120255Z 16004KT 30/13 A3003 RMK A01 T02970132  RH  037%=      5-min Rain = 0
KPT1 120300Z 15004KT 30/13 A3003 RMK A01 T02960132  RH  037%=      5-min Rain = 0
KPT1 120305Z 15005KT 29/13 A3003 RMK A01 T02940133  RH  038%=      5-min Rain = 0
KPT1 120310Z 15004KT 29/13 A3004 RMK A01 T02940133  RH  038%=      5-min Rain = 0
KPT1 120315Z 16004KT 29/13 A3004 RMK A01 T02930134  RH  038%=      5-min Rain = 0
KPT1 120320Z 15004KT 29/13 A3004 RMK A01 T02920134  RH  039%=      5-min Rain = 0
KPT1 120325Z 14004KT 29/14 A3004 RMK A01 T02920135  RH  039%=      5-min Rain = 0
KPT1 120330Z 13004KT 29/14 A3004 RMK A01 T02910136  RH  039%=      5-min Rain = 0
KPT1 120335Z 13004KT 29/13 A3004 RMK A01 T02910134  RH  039%=      5-min Rain = 0
KPT1 120340Z 13004KT 29/14 A3005 RMK A01 T02900135  RH  039%=      5-min Rain = 0
KPT1 120345Z 14004KT 29/14 A3005 RMK A01 T02880136  RH  040%=      5-min Rain = 0
KPT1 120350Z 15004KT 29/14 A3005 RMK A01 T02870136  RH  040%=      5-min Rain = 0
KPT1 120355Z 16004KT 29/14 A3005 RMK A01 T02850136  RH  041%=      5-min Rain = 0
KPT1 120400Z 16004KT 29/13 A3005 RMK A01 T02850134  RH  040%=      5-min Rain = 0
KPT1 120405Z 16004KT 29/13 A3005 RMK A01 T02850134  RH  040%=      5-min Rain = 0
KPT1 120410Z 17004KT 29/13 A3005 RMK A01 T02850133  RH  040%=      5-min Rain = 0
KPT1 120415Z 18003KT 29/13 A3005 RMK A01 T02850134  RH  040%=      5-min Rain = 0
KPT1 120420Z 18003KT 28/14 A3005 RMK A01 T02830135  RH  041%=      5-min Rain = 0
KPT1 120425Z 18004KT 28/13 A3005 RMK A01 T02820133  RH  041%=      5-min Rain = 0
KPT1 120430Z 18004KT 28/13 A3005 RMK A01 T02800132  RH  041%=      5-min Rain = 0
KPT1 120435Z 19004KT 28/13 A3005 RMK A01 T02800130  RH  040%=      5-min Rain = 0
KPT1 120440Z 18004KT 28/13 A3005 RMK A01 T02810131  RH  040%=      5-min Rain = 0
KPT1 120445Z 19004KT 28/13 A3005 RMK A01 T02800131  RH  041%=      5-min Rain = 0
KPT1 120450Z 18005KT 28/13 A3005 RMK A01 T02800131  RH  040%=      5-min Rain = 0
KPT1 120455Z 18004KT 28/13 A3006 RMK A01 T02800131  RH  041%=      5-min Rain = 0
KPT1 120500Z 19005KT 28/13 A3006 RMK A01 T02790131  RH  041%=      5-min Rain = 0

Page generated in 0.0219 seconds.